Lamar, CO (81052)

10:19 AM MDT on August 27, 2014 (GMT -0600)
Lamar Municipal | Change Station
CLOSE
Current Station
Airport
Location: Lamar,
Elevation: 3704 ft
Nearby Weather Stations

Elev 3704 ft 38.07 °N, 102.69 °W | Updated 26 minutes ago

Partly Cloudy
Partly Cloudy
76 °F
Feels Like 76 °F
N
12
Wind Variable Wind from SSW

Today
High -- | Low -- °F
--% Chance of Precip.
Yesterday
High -- | Low -- °F
Precip. -- in
6:15 AM 7:26 PM
Waxing Crescent, 4% visible
Pressure 29.97 in
Visibility 9.0 miles
Clouds Few 3500 ft
Dew Point 63 °F
Humidity 64%
Rainfall 0.00 in
Snow Depth Not available.
UV 5 out of 12
Pollen 8.00 out of 12
Air Quality Not available.
Flu Activity Not available.
METAR KLAA 271553Z AUTO 21010KT 9SM FEW035 24/17 A3010 RMK AO2 SLP148 T02440172

More Conditions Fewer Conditions

Pressure 29.97 in
Visibility 9.0 miles
Clouds Few 3500 ft
Dew Point 63 °F
Humidity 64%
Rainfall 0.00 in
Snow Depth Not available.
UV 5 out of 12
Pollen 8.00 out of 12
Air Quality Not available.
Flu Activity Not available.
METAR KLAA 271553Z AUTO 21010KT 9SM FEW035 24/17 A3010 RMK AO2 SLP148 T02440172

More Conditions Fewer Conditions

10-Day Weather Forecast

Almanac

Astronomy

Aug. 27, 2014 Rise Set
Actual Time 6:15 AM MDT 7:26 PM MDT
Civil Twilight 5:48 AM MDT 7:54 PM MDT
Nautical Twilight 5:16 AM MDT 8:26 PM MDT
Astronomical Twilight 4:42 AM MDT 9:00 PM MDT
Moon 8:11 AM MDT 8:23 PM MDT
Length of Visible Light 14h 05m
Length of Day
13h 11m
Tomorrow will be 2m 18s shorter.
Waxing Crescent, 4% of the Moon is Illuminated
Today
Waxing Crescent
Sep 2
First Quarter
Sep 8
Full
Sep 15
Last Quarter
Sep 24
New

Today's Extremes

State Highs State Lows

Community

WunderPhotos

Upload Photos

1,747,721 photos uploaded!

Nearby

Snow Depth

Station Depth Elevation
Ute Creek 1 in 10650 ft
Medano Pass 0 in 9620 ft
South Colony 0 in 10800 ft
Echo Lake 0 in 10600 ft
Rough And Tumble 1 in 10360 ft

Earthquake Activity

City Distance Mag. Time & Date
No recent earthquake activity has been reported nearby.
Minimum magnitude displayed is 2.5.

Coastal Water Temperatures

Place Temperature
No Stations Reporting

Nearby Weather Stations